RYR8H LIME-LICR
Flight info
| Callsign | RYR8H |
|---|---|
| Flight time | 1h 24m |
| Altitude | 35000 |
| Route | LOGDI DCT LOMED DCT SOR/N0340F190 Q58 FOSQA |
| Aircraft | B738/M-SDE2E3FGHIRWXY/LB1 |
Departure
| Time | 2026-04-26 18:17 |
|---|---|
| Airport | Il Caravaggio International Airport (LIME) |
Arrival
| Time | 2026-04-26 19:42 |
|---|---|
| Airport | Reggio Calabria Airport (LICR) |
| Time | Latitude | Longitude | Altitude | Speed | Heading |
|---|---|---|---|---|---|
| 2026-04-26 17:46 | 45.66684 | 9.69800 | 786 ft | 0 kts | 195° |
| 2026-04-26 18:07 | 45.66695 | 9.69805 | 786 ft | 4 kts | 195° |
| 2026-04-26 18:07 | 45.66713 | 9.69811 | 786 ft | 4 kts | 194° |
| 2026-04-26 18:08 | 45.66743 | 9.69822 | 786 ft | 4 kts | 189° |
| 2026-04-26 18:08 | 45.66768 | 9.69819 | 786 ft | 4 kts | 143° |
| 2026-04-26 18:08 | 45.66783 | 9.69791 | 786 ft | 4 kts | 108° |
| 2026-04-26 18:08 | 45.66785 | 9.69781 | 786 ft | 0 kts | 105° |
| 2026-04-26 18:11 | 45.66783 | 9.69793 | 786 ft | 5 kts | 105° |
| 2026-04-26 18:11 | 45.66769 | 9.69857 | 786 ft | 9 kts | 106° |
| 2026-04-26 18:11 | 45.66747 | 9.69969 | 786 ft | 14 kts | 105° |
| 2026-04-26 18:12 | 45.66720 | 9.70121 | 786 ft | 17 kts | 105° |
| 2026-04-26 18:12 | 45.66691 | 9.70278 | 786 ft | 16 kts | 104° |
| 2026-04-26 18:12 | 45.66663 | 9.70429 | 786 ft | 15 kts | 105° |
| 2026-04-26 18:12 | 45.66636 | 9.70574 | 786 ft | 15 kts | 104° |
| 2026-04-26 18:13 | 45.66611 | 9.70713 | 786 ft | 14 kts | 105° |
| 2026-04-26 18:13 | 45.66586 | 9.70851 | 786 ft | 15 kts | 104° |
| 2026-04-26 18:13 | 45.66554 | 9.71013 | 786 ft | 18 kts | 110° |
| 2026-04-26 18:13 | 45.66517 | 9.71129 | 786 ft | 20 kts | 111° |
| 2026-04-26 18:14 | 45.66466 | 9.71410 | 786 ft | 23 kts | 104° |
| 2026-04-26 18:14 | 45.66439 | 9.71616 | 786 ft | 20 kts | 83° |
| 2026-04-26 18:14 | 45.66471 | 9.71802 | 786 ft | 19 kts | 83° |
| 2026-04-26 18:14 | 45.66450 | 9.71983 | 786 ft | 18 kts | 104° |
| 2026-04-26 18:15 | 45.66419 | 9.72157 | 786 ft | 18 kts | 104° |
| 2026-04-26 18:15 | 45.66389 | 9.72324 | 786 ft | 17 kts | 104° |
| 2026-04-26 18:15 | 45.66375 | 9.72447 | 786 ft | 7 kts | 76° |
| 2026-04-26 18:15 | 45.66413 | 9.72478 | 786 ft | 7 kts | 5° |
| 2026-04-26 18:16 | 45.66454 | 9.72456 | 786 ft | 7 kts | 309° |
| 2026-04-26 18:16 | 45.66565 | 9.71867 | 786 ft | 88 kts | 285° |
| 2026-04-26 18:16 | 45.66780 | 9.70717 | 786 ft | 149 kts | 285° |
| 2026-04-26 18:17 | 45.67072 | 9.69130 | 1144 ft | 170 kts | 285° |
| 2026-04-26 18:17 | 45.67255 | 9.67443 | 1847 ft | 176 kts | 262° |
| 2026-04-26 18:17 | 45.66690 | 9.65924 | 2555 ft | 177 kts | 223° |
| 2026-04-26 18:17 | 45.65762 | 9.64731 | 3172 ft | 184 kts | 221° |
| 2026-04-26 18:18 | 45.64825 | 9.63453 | 3893 ft | 187 kts | 224° |
| 2026-04-26 18:18 | 45.63894 | 9.62125 | 4607 ft | 191 kts | 225° |
| 2026-04-26 18:18 | 45.62942 | 9.60747 | 5332 ft | 193 kts | 224° |
| 2026-04-26 18:18 | 45.62012 | 9.59394 | 6058 ft | 194 kts | 224° |
| 2026-04-26 18:19 | 45.61020 | 9.57973 | 6518 ft | 213 kts | 224° |
| 2026-04-26 18:19 | 45.59918 | 9.56404 | 6702 ft | 234 kts | 224° |
| 2026-04-26 18:19 | 45.58738 | 9.54723 | 7104 ft | 244 kts | 224° |
| 2026-04-26 18:19 | 45.57524 | 9.52992 | 7758 ft | 247 kts | 223° |
| 2026-04-26 18:20 | 45.56089 | 9.51690 | 8476 ft | 248 kts | 194° |
| 2026-04-26 18:20 | 45.54376 | 9.51664 | 9171 ft | 250 kts | 166° |
| 2026-04-26 18:20 | 45.52719 | 9.52476 | 9854 ft | 254 kts | 158° |
| 2026-04-26 18:20 | 45.52168 | 9.52807 | 10081 ft | 256 kts | 157° |
| 2026-04-26 18:21 | 45.49419 | 9.54534 | 10980 ft | 269 kts | 156° |
| 2026-04-26 18:21 | 45.48248 | 9.55268 | 11094 ft | 286 kts | 156° |
| 2026-04-26 18:21 | 45.46351 | 9.56444 | 11283 ft | 309 kts | 157° |
| 2026-04-26 18:21 | 45.43583 | 9.58135 | 11564 ft | 336 kts | 157° |
| 2026-04-26 18:22 | 45.42141 | 9.59007 | 11898 ft | 342 kts | 157° |
| 2026-04-26 18:22 | 45.39934 | 9.60337 | 12549 ft | 347 kts | 157° |
| 2026-04-26 18:22 | 45.37698 | 9.61679 | 13266 ft | 350 kts | 158° |
| 2026-04-26 18:22 | 45.35486 | 9.63179 | 13966 ft | 355 kts | 150° |
| 2026-04-26 18:23 | 45.33378 | 9.65043 | 14606 ft | 359 kts | 147° |
| 2026-04-26 18:23 | 45.31296 | 9.67037 | 15277 ft | 363 kts | 146° |
| 2026-04-26 18:23 | 45.29201 | 9.69067 | 15952 ft | 366 kts | 146° |
| 2026-04-26 18:23 | 45.27076 | 9.71104 | 16628 ft | 370 kts | 147° |
| 2026-04-26 18:24 | 45.24927 | 9.73134 | 17278 ft | 374 kts | 147° |
| 2026-04-26 18:24 | 45.22733 | 9.75182 | 17912 ft | 379 kts | 147° |
| 2026-04-26 18:24 | 45.20515 | 9.77237 | 18529 ft | 383 kts | 147° |
| 2026-04-26 18:24 | 45.18271 | 9.79306 | 19112 ft | 386 kts | 148° |
| 2026-04-26 18:25 | 45.16006 | 9.81389 | 19733 ft | 389 kts | 148° |
| 2026-04-26 18:25 | 45.13731 | 9.83478 | 20326 ft | 391 kts | 148° |
| 2026-04-26 18:25 | 45.11440 | 9.85580 | 20925 ft | 394 kts | 148° |
| 2026-04-26 18:25 | 45.09132 | 9.87695 | 21493 ft | 397 kts | 148° |
| 2026-04-26 18:26 | 45.06807 | 9.89826 | 22047 ft | 400 kts | 148° |
| 2026-04-26 18:26 | 45.04461 | 9.91973 | 22605 ft | 403 kts | 148° |
| 2026-04-26 18:26 | 45.02100 | 9.94131 | 23161 ft | 406 kts | 149° |
| 2026-04-26 18:26 | 44.99718 | 9.96301 | 23678 ft | 409 kts | 149° |
| 2026-04-26 18:27 | 44.97279 | 9.98389 | 24108 ft | 412 kts | 151° |
| 2026-04-26 18:27 | 44.94788 | 10.00424 | 24506 ft | 415 kts | 152° |
| 2026-04-26 18:27 | 44.92268 | 10.02456 | 24930 ft | 418 kts | 152° |
| 2026-04-26 18:27 | 44.89737 | 10.04505 | 25362 ft | 421 kts | 152° |
| 2026-04-26 18:28 | 44.87191 | 10.06578 | 25780 ft | 424 kts | 151° |
| 2026-04-26 18:28 | 44.84635 | 10.08670 | 26188 ft | 427 kts | 151° |
| 2026-04-26 18:28 | 44.82062 | 10.10781 | 26581 ft | 429 kts | 151° |
| 2026-04-26 18:28 | 44.79471 | 10.12907 | 26972 ft | 432 kts | 151° |
| 2026-04-26 18:29 | 44.76867 | 10.15044 | 27358 ft | 435 kts | 151° |
| 2026-04-26 18:29 | 44.74239 | 10.17195 | 27739 ft | 438 kts | 151° |
| 2026-04-26 18:29 | 44.71600 | 10.19358 | 28095 ft | 441 kts | 150° |
| 2026-04-26 18:29 | 44.69079 | 10.21841 | 28440 ft | 445 kts | 142° |
| 2026-04-26 18:30 | 44.66696 | 10.24644 | 28819 ft | 448 kts | 140° |
| 2026-04-26 18:30 | 44.64351 | 10.27545 | 29158 ft | 451 kts | 139° |
| 2026-04-26 18:30 | 44.61993 | 10.30485 | 29477 ft | 455 kts | 140° |
| 2026-04-26 18:30 | 44.59611 | 10.33423 | 29896 ft | 457 kts | 140° |
| 2026-04-26 18:31 | 44.57204 | 10.36349 | 30234 ft | 459 kts | 140° |
| 2026-04-26 18:31 | 44.54775 | 10.39264 | 30576 ft | 459 kts | 141° |
| 2026-04-26 18:31 | 44.52346 | 10.42155 | 31012 ft | 457 kts | 141° |
| 2026-04-26 18:31 | 44.49922 | 10.45026 | 31451 ft | 455 kts | 141° |
| 2026-04-26 18:32 | 44.47504 | 10.47883 | 31813 ft | 455 kts | 141° |
| 2026-04-26 18:32 | 44.45080 | 10.50743 | 32157 ft | 455 kts | 141° |
| 2026-04-26 18:32 | 44.42660 | 10.53595 | 32532 ft | 454 kts | 141° |
| 2026-04-26 18:32 | 44.40245 | 10.56440 | 32915 ft | 453 kts | 141° |
| 2026-04-26 18:33 | 44.37840 | 10.59271 | 33290 ft | 452 kts | 141° |
| 2026-04-26 18:33 | 44.35432 | 10.62103 | 33612 ft | 453 kts | 141° |
| 2026-04-26 18:33 | 44.33020 | 10.64937 | 33951 ft | 453 kts | 141° |
| 2026-04-26 18:33 | 44.30613 | 10.67761 | 34303 ft | 452 kts | 141° |
| 2026-04-26 18:34 | 44.28211 | 10.70578 | 34603 ft | 451 kts | 141° |
| 2026-04-26 18:34 | 44.25805 | 10.73395 | 34890 ft | 451 kts | 141° |
| 2026-04-26 18:34 | 44.23408 | 10.76198 | 35179 ft | 450 kts | 141° |
| 2026-04-26 18:34 | 44.20995 | 10.79018 | 35200 ft | 455 kts | 141° |
| 2026-04-26 18:35 | 44.16141 | 10.84680 | 35209 ft | 454 kts | 141° |
| 2026-04-26 18:35 | 44.11335 | 10.90277 | 35199 ft | 448 kts | 141° |
| 2026-04-26 18:36 | 44.06554 | 10.95830 | 35180 ft | 448 kts | 141° |
| 2026-04-26 18:36 | 44.01756 | 11.01350 | 35170 ft | 448 kts | 143° |
| 2026-04-26 18:37 | 43.96822 | 11.06535 | 35147 ft | 448 kts | 145° |
| 2026-04-26 18:37 | 43.91786 | 11.11650 | 35138 ft | 449 kts | 145° |
| 2026-04-26 18:38 | 43.86749 | 11.16787 | 35116 ft | 450 kts | 145° |
| 2026-04-26 18:38 | 43.81717 | 11.21947 | 35130 ft | 450 kts | 144° |
| 2026-04-26 18:39 | 43.76689 | 11.27109 | 35147 ft | 450 kts | 144° |
| 2026-04-26 18:39 | 43.71653 | 11.32270 | 35147 ft | 451 kts | 144° |
| 2026-04-26 18:40 | 43.66608 | 11.37429 | 35146 ft | 451 kts | 144° |
| 2026-04-26 18:40 | 43.61558 | 11.42580 | 35141 ft | 452 kts | 144° |
| 2026-04-26 18:41 | 43.56507 | 11.47722 | 35153 ft | 451 kts | 144° |
| 2026-04-26 18:41 | 43.51449 | 11.52860 | 35149 ft | 452 kts | 144° |
| 2026-04-26 18:42 | 43.46392 | 11.57986 | 35148 ft | 452 kts | 145° |
| 2026-04-26 18:42 | 43.41329 | 11.63106 | 35142 ft | 451 kts | 144° |
| 2026-04-26 18:43 | 43.36272 | 11.68210 | 35152 ft | 451 kts | 144° |
| 2026-04-26 18:43 | 43.31215 | 11.73304 | 35146 ft | 450 kts | 145° |
| 2026-04-26 18:44 | 43.26163 | 11.78381 | 35143 ft | 450 kts | 145° |
| 2026-04-26 18:44 | 43.21113 | 11.83446 | 35137 ft | 449 kts | 145° |
| 2026-04-26 18:45 | 43.16071 | 11.88492 | 35147 ft | 448 kts | 145° |
| 2026-04-26 18:45 | 43.11035 | 11.93522 | 35144 ft | 448 kts | 145° |
| 2026-04-26 18:46 | 43.05992 | 11.98548 | 35151 ft | 451 kts | 145° |
| 2026-04-26 18:46 | 43.00859 | 12.03652 | 35156 ft | 462 kts | 145° |
| 2026-04-26 18:47 | 42.95642 | 12.08828 | 35151 ft | 471 kts | 145° |
| 2026-04-26 18:47 | 42.90299 | 12.14119 | 35146 ft | 477 kts | 145° |
| 2026-04-26 18:48 | 42.84923 | 12.19432 | 35140 ft | 477 kts | 145° |
| 2026-04-26 18:48 | 42.79549 | 12.24733 | 35146 ft | 477 kts | 145° |
| 2026-04-26 18:49 | 42.74173 | 12.30022 | 35142 ft | 476 kts | 146° |
| 2026-04-26 18:49 | 42.68800 | 12.35297 | 35143 ft | 476 kts | 146° |
| 2026-04-26 18:50 | 42.63442 | 12.40545 | 35149 ft | 474 kts | 146° |
| 2026-04-26 18:50 | 42.58094 | 12.45772 | 35147 ft | 473 kts | 146° |
| 2026-04-26 18:51 | 42.52750 | 12.50985 | 35135 ft | 472 kts | 146° |
| 2026-04-26 18:51 | 42.47420 | 12.56172 | 35147 ft | 471 kts | 146° |
| 2026-04-26 18:52 | 42.42095 | 12.61343 | 35141 ft | 471 kts | 146° |
| 2026-04-26 18:52 | 42.36761 | 12.66512 | 35130 ft | 471 kts | 146° |
| 2026-04-26 18:53 | 42.31433 | 12.71664 | 35141 ft | 471 kts | 146° |
| 2026-04-26 18:53 | 42.26095 | 12.76815 | 35132 ft | 471 kts | 146° |
| 2026-04-26 18:54 | 42.20759 | 12.81953 | 35146 ft | 471 kts | 146° |
| 2026-04-26 18:54 | 42.15418 | 12.87084 | 35160 ft | 471 kts | 146° |
| 2026-04-26 18:55 | 42.10077 | 12.92205 | 35168 ft | 472 kts | 146° |
| 2026-04-26 18:55 | 42.04722 | 12.97329 | 35165 ft | 472 kts | 146° |
| 2026-04-26 18:56 | 41.99369 | 13.02441 | 35167 ft | 472 kts | 146° |
| 2026-04-26 18:56 | 41.94005 | 13.07551 | 35176 ft | 472 kts | 146° |
| 2026-04-26 18:57 | 41.90452 | 13.10930 | 35167 ft | 473 kts | 146° |
| 2026-04-26 18:57 | 41.83271 | 13.17746 | 35160 ft | 473 kts | 146° |
| 2026-04-26 18:58 | 41.77902 | 13.22829 | 35170 ft | 472 kts | 146° |
| 2026-04-26 18:58 | 41.72536 | 13.27899 | 35168 ft | 472 kts | 146° |
| 2026-04-26 18:59 | 41.67164 | 13.32965 | 35165 ft | 472 kts | 146° |
| 2026-04-26 18:59 | 41.61825 | 13.37988 | 35159 ft | 472 kts | 146° |
| 2026-04-26 19:00 | 41.56456 | 13.43029 | 35159 ft | 472 kts | 146° |
| 2026-04-26 19:00 | 41.51080 | 13.48067 | 35162 ft | 472 kts | 146° |
| 2026-04-26 19:01 | 41.45710 | 13.53088 | 35159 ft | 472 kts | 146° |
| 2026-04-26 19:01 | 41.40331 | 13.58107 | 35148 ft | 472 kts | 146° |
| 2026-04-26 19:02 | 41.34951 | 13.63117 | 35157 ft | 471 kts | 146° |
| 2026-04-26 19:02 | 41.31360 | 13.66456 | 35158 ft | 471 kts | 146° |
| 2026-04-26 19:03 | 41.24196 | 13.73101 | 35156 ft | 471 kts | 146° |
| 2026-04-26 19:03 | 41.18824 | 13.78074 | 35154 ft | 471 kts | 146° |
| 2026-04-26 19:04 | 41.13442 | 13.83044 | 35152 ft | 471 kts | 146° |
| 2026-04-26 19:04 | 41.08065 | 13.88001 | 35157 ft | 471 kts | 146° |
| 2026-04-26 19:05 | 40.99993 | 13.95423 | 35158 ft | 471 kts | 146° |
| 2026-04-26 19:06 | 40.95520 | 13.99526 | 35155 ft | 471 kts | 146° |
| 2026-04-26 19:06 | 40.90128 | 14.04462 | 35158 ft | 471 kts | 146° |
| 2026-04-26 19:07 | 40.84736 | 14.09390 | 35160 ft | 471 kts | 146° |
| 2026-04-26 19:07 | 40.79341 | 14.14310 | 35156 ft | 471 kts | 146° |
| 2026-04-26 19:08 | 40.73942 | 14.19224 | 35161 ft | 471 kts | 146° |
| 2026-04-26 19:08 | 40.68543 | 14.24129 | 35162 ft | 471 kts | 146° |
| 2026-04-26 19:09 | 40.63199 | 14.28975 | 35158 ft | 471 kts | 146° |
| 2026-04-26 19:09 | 40.57680 | 14.33594 | 35154 ft | 470 kts | 155° |
| 2026-04-26 19:10 | 40.51539 | 14.36416 | 35172 ft | 468 kts | 164° |
| 2026-04-26 19:10 | 40.45296 | 14.38881 | 35161 ft | 468 kts | 164° |
| 2026-04-26 19:11 | 40.39072 | 14.41376 | 35156 ft | 468 kts | 163° |
| 2026-04-26 19:11 | 40.32852 | 14.43912 | 35163 ft | 468 kts | 163° |
| 2026-04-26 19:12 | 40.26633 | 14.46459 | 35170 ft | 468 kts | 163° |
| 2026-04-26 19:12 | 40.20417 | 14.49002 | 35163 ft | 468 kts | 163° |
| 2026-04-26 19:13 | 40.14201 | 14.51538 | 35165 ft | 468 kts | 163° |
| 2026-04-26 19:13 | 40.07982 | 14.54069 | 35165 ft | 468 kts | 163° |
| 2026-04-26 19:14 | 40.01761 | 14.56596 | 35167 ft | 468 kts | 163° |
| 2026-04-26 19:14 | 39.95547 | 14.59115 | 35172 ft | 468 kts | 163° |
| 2026-04-26 19:15 | 39.89366 | 14.61616 | 35170 ft | 468 kts | 163° |
| 2026-04-26 19:15 | 39.83143 | 14.64129 | 35167 ft | 468 kts | 163° |
| 2026-04-26 19:16 | 39.76918 | 14.66639 | 35167 ft | 469 kts | 163° |
| 2026-04-26 19:16 | 39.70764 | 14.69116 | 35148 ft | 450 kts | 163° |
| 2026-04-26 19:16 | 39.67810 | 14.70304 | 34913 ft | 442 kts | 163° |
| 2026-04-26 19:17 | 39.64886 | 14.71478 | 34462 ft | 438 kts | 163° |
| 2026-04-26 19:17 | 39.61972 | 14.72646 | 33857 ft | 439 kts | 163° |
| 2026-04-26 19:17 | 39.59053 | 14.73815 | 33244 ft | 439 kts | 163° |
| 2026-04-26 19:17 | 39.56139 | 14.74982 | 32637 ft | 439 kts | 163° |
| 2026-04-26 19:18 | 39.53214 | 14.76151 | 32013 ft | 439 kts | 163° |
| 2026-04-26 19:18 | 39.50293 | 14.77318 | 31404 ft | 440 kts | 163° |
| 2026-04-26 19:18 | 39.47366 | 14.78487 | 30783 ft | 440 kts | 163° |
| 2026-04-26 19:18 | 39.44444 | 14.79653 | 30304 ft | 438 kts | 163° |
| 2026-04-26 19:19 | 39.41545 | 14.80808 | 29774 ft | 434 kts | 163° |
| 2026-04-26 19:19 | 39.38670 | 14.81954 | 29263 ft | 430 kts | 163° |
| 2026-04-26 19:19 | 39.35825 | 14.83086 | 28786 ft | 425 kts | 163° |
| 2026-04-26 19:19 | 39.33008 | 14.84206 | 28311 ft | 422 kts | 163° |
| 2026-04-26 19:20 | 39.30216 | 14.85315 | 27835 ft | 420 kts | 163° |
| 2026-04-26 19:20 | 39.28365 | 14.86050 | 27521 ft | 421 kts | 163° |
| 2026-04-26 19:20 | 39.24615 | 14.87537 | 26891 ft | 422 kts | 163° |
| 2026-04-26 19:20 | 39.21813 | 14.88647 | 26422 ft | 421 kts | 163° |
| 2026-04-26 19:21 | 39.19114 | 14.89716 | 25966 ft | 418 kts | 163° |
| 2026-04-26 19:21 | 39.16332 | 14.90817 | 25401 ft | 419 kts | 163° |
| 2026-04-26 19:21 | 39.13562 | 14.91912 | 25020 ft | 413 kts | 163° |
| 2026-04-26 19:21 | 39.10820 | 14.92995 | 24546 ft | 410 kts | 163° |
| 2026-04-26 19:22 | 39.08105 | 14.94066 | 24092 ft | 407 kts | 163° |
| 2026-04-26 19:22 | 39.05409 | 14.95130 | 23604 ft | 404 kts | 163° |
| 2026-04-26 19:22 | 39.02731 | 14.96185 | 23077 ft | 401 kts | 163° |
| 2026-04-26 19:22 | 39.00075 | 14.97231 | 22596 ft | 397 kts | 163° |
| 2026-04-26 19:23 | 38.97447 | 14.98264 | 22121 ft | 393 kts | 163° |
| 2026-04-26 19:23 | 38.94846 | 14.99288 | 21671 ft | 389 kts | 163° |
| 2026-04-26 19:23 | 38.92267 | 15.00300 | 21222 ft | 386 kts | 163° |
| 2026-04-26 19:23 | 38.89711 | 15.01304 | 20779 ft | 382 kts | 163° |
| 2026-04-26 19:24 | 38.87212 | 15.02284 | 20349 ft | 379 kts | 163° |
| 2026-04-26 19:24 | 38.84700 | 15.03269 | 19909 ft | 376 kts | 163° |
| 2026-04-26 19:24 | 38.79727 | 15.05216 | 19048 ft | 371 kts | 163° |
| 2026-04-26 19:25 | 38.77267 | 15.06178 | 18619 ft | 369 kts | 163° |
| 2026-04-26 19:25 | 38.75611 | 15.06825 | 18300 ft | 368 kts | 163° |
| 2026-04-26 19:25 | 38.72390 | 15.08093 | 17683 ft | 364 kts | 162° |
| 2026-04-26 19:25 | 38.70081 | 15.09408 | 17233 ft | 362 kts | 151° |
| 2026-04-26 19:26 | 38.68017 | 15.11225 | 16807 ft | 359 kts | 141° |
| 2026-04-26 19:26 | 38.66114 | 15.13273 | 16391 ft | 356 kts | 140° |
| 2026-04-26 19:26 | 38.64243 | 15.15327 | 15972 ft | 353 kts | 140° |
| 2026-04-26 19:26 | 38.62383 | 15.17364 | 15559 ft | 351 kts | 140° |
| 2026-04-26 19:27 | 38.60526 | 15.19381 | 15150 ft | 348 kts | 140° |
| 2026-04-26 19:27 | 38.58681 | 15.21370 | 14743 ft | 346 kts | 141° |
| 2026-04-26 19:27 | 38.56845 | 15.23343 | 14343 ft | 344 kts | 141° |
| 2026-04-26 19:27 | 38.55016 | 15.25303 | 13940 ft | 342 kts | 141° |
| 2026-04-26 19:28 | 38.53201 | 15.27245 | 13488 ft | 340 kts | 141° |
| 2026-04-26 19:28 | 38.51392 | 15.29174 | 13057 ft | 337 kts | 141° |
| 2026-04-26 19:28 | 38.49473 | 15.30860 | 12705 ft | 332 kts | 150° |
| 2026-04-26 19:28 | 38.47450 | 15.32246 | 12315 ft | 329 kts | 153° |
| 2026-04-26 19:29 | 38.45409 | 15.33562 | 11907 ft | 328 kts | 153° |
| 2026-04-26 19:29 | 38.43379 | 15.34874 | 11514 ft | 326 kts | 153° |
| 2026-04-26 19:29 | 38.41359 | 15.36202 | 11006 ft | 328 kts | 152° |
| 2026-04-26 19:29 | 38.39340 | 15.37550 | 10586 ft | 327 kts | 152° |
| 2026-04-26 19:30 | 38.37352 | 15.38889 | 10411 ft | 318 kts | 152° |
| 2026-04-26 19:30 | 38.35420 | 15.40197 | 10250 ft | 309 kts | 152° |
| 2026-04-26 19:30 | 38.33550 | 15.41466 | 10111 ft | 300 kts | 151° |
| 2026-04-26 19:30 | 38.32339 | 15.42287 | 10020 ft | 295 kts | 151° |
| 2026-04-26 19:31 | 38.29928 | 15.43922 | 9580 ft | 292 kts | 151° |
| 2026-04-26 19:31 | 38.28141 | 15.45133 | 9269 ft | 290 kts | 152° |
| 2026-04-26 19:31 | 38.26360 | 15.46339 | 8958 ft | 288 kts | 152° |
| 2026-04-26 19:31 | 38.24588 | 15.47539 | 8551 ft | 290 kts | 152° |
| 2026-04-26 19:32 | 38.22805 | 15.48745 | 8217 ft | 290 kts | 152° |
| 2026-04-26 19:32 | 38.21029 | 15.49947 | 7891 ft | 289 kts | 152° |
| 2026-04-26 19:32 | 38.19256 | 15.51146 | 7567 ft | 288 kts | 152° |
| 2026-04-26 19:32 | 38.17487 | 15.52341 | 7257 ft | 287 kts | 152° |
| 2026-04-26 19:33 | 38.15749 | 15.53514 | 7110 ft | 279 kts | 152° |
| 2026-04-26 19:33 | 38.14057 | 15.54656 | 6971 ft | 272 kts | 152° |
| 2026-04-26 19:33 | 38.12377 | 15.55663 | 6829 ft | 264 kts | 166° |
| 2026-04-26 19:33 | 38.10565 | 15.55771 | 6595 ft | 260 kts | 186° |
| 2026-04-26 19:34 | 38.08766 | 15.55591 | 6324 ft | 259 kts | 185° |
| 2026-04-26 19:34 | 38.06997 | 15.55417 | 6055 ft | 258 kts | 185° |
| 2026-04-26 19:34 | 38.05209 | 15.55246 | 5785 ft | 257 kts | 185° |
| 2026-04-26 19:34 | 38.03403 | 15.55076 | 5525 ft | 256 kts | 185° |
| 2026-04-26 19:35 | 38.01667 | 15.54916 | 5445 ft | 243 kts | 184° |
| 2026-04-26 19:35 | 38.00022 | 15.54766 | 5302 ft | 231 kts | 185° |
| 2026-04-26 19:35 | 37.98432 | 15.54621 | 5202 ft | 228 kts | 185° |
| 2026-04-26 19:35 | 37.96850 | 15.54477 | 5098 ft | 229 kts | 185° |
| 2026-04-26 19:36 | 37.95243 | 15.54330 | 4857 ft | 235 kts | 185° |
| 2026-04-26 19:36 | 37.94160 | 15.54231 | 4687 ft | 236 kts | 185° |
| 2026-04-26 19:36 | 37.92004 | 15.54205 | 4327 ft | 230 kts | 165° |
| 2026-04-26 19:36 | 37.90690 | 15.55231 | 4098 ft | 222 kts | 129° |
| 2026-04-26 19:37 | 37.90017 | 15.56926 | 3874 ft | 213 kts | 101° |
| 2026-04-26 19:37 | 37.89959 | 15.58745 | 3682 ft | 203 kts | 79° |
| 2026-04-26 19:37 | 37.90561 | 15.60286 | 3462 ft | 193 kts | 42° |
| 2026-04-26 19:37 | 37.91666 | 15.61154 | 3263 ft | 185 kts | 18° |
| 2026-04-26 19:38 | 37.92879 | 15.61671 | 3062 ft | 184 kts | 17° |
| 2026-04-26 19:38 | 37.94093 | 15.62181 | 2862 ft | 184 kts | 17° |
| 2026-04-26 19:38 | 37.95297 | 15.62683 | 2627 ft | 181 kts | 17° |
| 2026-04-26 19:38 | 37.96489 | 15.63169 | 2356 ft | 179 kts | 16° |
| 2026-04-26 19:39 | 37.97672 | 15.63649 | 2089 ft | 177 kts | 16° |
| 2026-04-26 19:39 | 37.98797 | 15.64109 | 1838 ft | 167 kts | 16° |
| 2026-04-26 19:39 | 37.99848 | 15.64538 | 1641 ft | 150 kts | 17° |
| 2026-04-26 19:39 | 38.00828 | 15.64939 | 1404 ft | 145 kts | 17° |
| 2026-04-26 19:40 | 38.01760 | 15.65334 | 1214 ft | 142 kts | 16° |
| 2026-04-26 19:40 | 38.02696 | 15.65734 | 1002 ft | 143 kts | 15° |
| 2026-04-26 19:40 | 38.03646 | 15.66105 | 799 ft | 143 kts | 14° |
| 2026-04-26 19:40 | 38.04608 | 15.66335 | 597 ft | 139 kts | 357° |
| 2026-04-26 19:41 | 38.05554 | 15.66133 | 337 ft | 138 kts | 341° |
| 2026-04-26 19:41 | 38.06425 | 15.65607 | 106 ft | 138 kts | 335° |
| 2026-04-26 19:41 | 38.07238 | 15.65083 | 44 ft | 115 kts | 332° |
| 2026-04-26 19:41 | 38.07457 | 15.64941 | 51 ft | 94 kts | 333° |
| 2026-04-26 19:42 | 38.07948 | 15.64621 | 74 ft | 15 kts | 332° |
| 2026-04-26 19:42 | 38.07995 | 15.64567 | 77 ft | 7 kts | 336° |
| 2026-04-26 19:42 | 38.07993 | 15.64595 | 75 ft | 6 kts | 154° |
| 2026-04-26 19:42 | 38.07937 | 15.64629 | 73 ft | 13 kts | 154° |
| 2026-04-26 19:43 | 38.07827 | 15.64700 | 61 ft | 23 kts | 153° |
| 2026-04-26 19:43 | 38.07654 | 15.64814 | 58 ft | 33 kts | 153° |
| 2026-04-26 19:43 | 38.07457 | 15.64941 | 51 ft | 25 kts | 153° |
| 2026-04-26 19:43 | 38.07393 | 15.65001 | 51 ft | 7 kts | 95° |
| 2026-04-26 19:44 | 38.07409 | 15.65055 | 48 ft | 5 kts | 63° |
| 2026-04-26 19:44 | 38.07416 | 15.65092 | 48 ft | 4 kts | 101° |
| 2026-04-26 19:44 | 38.07385 | 15.65119 | 48 ft | 9 kts | 150° |
| 2026-04-26 19:44 | 38.07381 | 15.65196 | 47 ft | 10 kts | 90° |
| 2026-04-26 19:45 | 38.07345 | 15.65245 | 48 ft | 7 kts | 153° |
| 2026-04-26 19:45 | 38.07305 | 15.65271 | 48 ft | 6 kts | 150° |
| 2026-04-26 19:45 | 38.07304 | 15.65298 | 48 ft | 2 kts | 58° |
| 2026-04-26 19:45 | 38.07311 | 15.65315 | 48 ft | 2 kts | 65° |
| 2026-04-26 19:46 | 38.07314 | 15.65322 | 48 ft | 0 kts | 63° |
| 2026-04-26 19:46 | 38.07313 | 15.65327 | 48 ft | 1 kts | 95° |
| 2026-04-26 19:46 | 38.07308 | 15.65338 | 48 ft | 0 kts | 115° |